sensor_id;sensor_type;location;lat;lon;timestamp;P1;durP1;ratioP1;P2;durP2;ratioP2
26359;SDS011;14063;41.426;13.854;2022-12-29T08:14:56;297.57;;;47.07;;
26359;SDS011;14063;41.426;13.854;2022-12-29T08:17:22;300.07;;;47.47;;
26359;SDS011;14063;41.426;13.854;2022-12-29T08:19:48;306.20;;;47.57;;
26359;SDS011;14063;41.426;13.854;2022-12-29T08:22:14;303.47;;;47.93;;
26359;SDS011;14063;41.426;13.854;2022-12-29T08:24:40;306.30;;;49.47;;
26359;SDS011;14063;41.426;13.854;2022-12-29T08:27:08;312.00;;;48.63;;
26359;SDS011;14063;41.426;13.854;2022-12-29T08:29:35;312.27;;;49.20;;
26359;SDS011;14063;41.426;13.854;2022-12-29T08:32:01;310.70;;;49.60;;
26359;SDS011;14063;41.426;13.854;2022-12-29T08:34:27;314.53;;;49.10;;
26359;SDS011;14063;41.426;13.854;2022-12-29T08:36:53;325.63;;;51.13;;
26359;SDS011;14063;41.426;13.854;2022-12-29T08:39:20;314.60;;;49.07;;
26359;SDS011;14063;41.426;13.854;2022-12-29T08:41:46;316.63;;;49.50;;
26359;SDS011;14063;41.426;13.854;2022-12-29T08:44:13;315.80;;;49.63;;
26359;SDS011;14063;41.426;13.854;2022-12-29T08:46:39;333.13;;;59.53;;
26359;SDS011;14063;41.426;13.854;2022-12-29T08:49:05;335.13;;;59.73;;
26359;SDS011;14063;41.426;13.854;2022-12-29T08:51:33;338.40;;;53.33;;
26359;SDS011;14063;41.426;13.854;2022-12-29T08:53:59;340.87;;;53.17;;
26359;SDS011;14063;41.426;13.854;2022-12-29T08:56:25;362.37;;;56.60;;
26359;SDS011;14063;41.426;13.854;2022-12-29T08:58:53;365.40;;;56.90;;
26359;SDS011;14063;41.426;13.854;2022-12-29T09:01:21;366.70;;;56.77;;
26359;SDS011;14063;41.426;13.854;2022-12-29T09:03:47;364.97;;;57.10;;
26359;SDS011;14063;41.426;13.854;2022-12-29T09:06:15;367.50;;;59.87;;
26359;SDS011;14063;41.426;13.854;2022-12-29T09:08:42;357.87;;;58.33;;
26359;SDS011;14063;41.426;13.854;2022-12-29T09:11:13;363.30;;;58.13;;
26359;SDS011;14063;41.426;13.854;2022-12-29T09:13:40;363.67;;;58.10;;
26359;SDS011;14063;41.426;13.854;2022-12-29T09:16:06;344.03;;;60.30;;
26359;SDS011;14063;41.426;13.854;2022-12-29T09:18:33;356.97;;;66.13;;
26359;SDS011;14063;41.426;13.854;2022-12-29T09:21:01;369.63;;;58.30;;
26359;SDS011;14063;41.426;13.854;2022-12-29T09:23:28;347.13;;;57.17;;
26359;SDS011;14063;41.426;13.854;2022-12-29T09:25:54;366.33;;;61.80;;
26359;SDS011;14063;41.426;13.854;2022-12-29T09:28:21;358.77;;;60.37;;
26359;SDS011;14063;41.426;13.854;2022-12-29T09:30:48;367.63;;;58.83;;
26359;SDS011;14063;41.426;13.854;2022-12-29T09:33:14;376.17;;;61.40;;
26359;SDS011;14063;41.426;13.854;2022-12-29T09:35:41;372.47;;;62.03;;
26359;SDS011;14063;41.426;13.854;2022-12-29T09:38:07;369.60;;;59.30;;
26359;SDS011;14063;41.426;13.854;2022-12-29T09:40:34;358.33;;;60.10;;
26359;SDS011;14063;41.426;13.854;2022-12-29T09:45:36;377.73;;;62.47;;
26359;SDS011;14063;41.426;13.854;2022-12-29T09:48:07;366.43;;;70.20;;
26359;SDS011;14063;41.426;13.854;2022-12-29T09:50:37;359.83;;;67.87;;
26359;SDS011;14063;41.426;13.854;2022-12-29T09:53:05;349.63;;;71.00;;
26359;SDS011;14063;41.426;13.854;2022-12-29T09:55:41;362.40;;;72.87;;
26359;SDS011;14063;41.426;13.854;2022-12-29T10:03:43;357.37;;;58.17;;
26359;SDS011;14063;41.426;13.854;2022-12-29T10:06:13;349.43;;;64.97;;
26359;SDS011;14063;41.426;13.854;2022-12-29T10:23:52;295.80;;;63.03;;
26359;SDS011;14063;41.426;13.854;2022-12-29T10:26:27;304.13;;;63.10;;
26359;SDS011;14063;41.426;13.854;2022-12-29T10:29:02;319.97;;;72.53;;
26359;SDS011;14063;41.426;13.854;2022-12-29T10:31:41;328.73;;;62.13;;
26359;SDS011;14063;41.426;13.854;2022-12-29T10:34:19;324.63;;;61.40;;
26359;SDS011;14063;41.426;13.854;2022-12-29T10:36:48;325.63;;;63.50;;
26359;SDS011;14063;41.426;13.854;2022-12-29T10:44:27;357.67;;;56.70;;
26359;SDS011;14063;41.426;13.854;2022-12-29T10:46:57;272.23;;;62.13;;
26359;SDS011;14063;41.426;13.854;2022-12-29T10:49:26;294.40;;;77.03;;
26359;SDS011;14063;41.426;13.854;2022-12-29T10:51:54;256.40;;;63.57;;
26359;SDS011;14063;41.426;13.854;2022-12-29T10:54:25;304.20;;;70.30;;
26359;SDS011;14063;41.426;13.854;2022-12-29T10:57:03;281.77;;;60.63;;
26359;SDS011;14063;41.426;13.854;2022-12-29T10:59:32;291.10;;;63.50;;
26359;SDS011;14063;41.426;13.854;2022-12-29T11:04:55;246.97;;;62.83;;
26359;SDS011;14063;41.426;13.854;2022-12-29T11:07:23;249.40;;;62.73;;
26359;SDS011;14063;41.426;13.854;2022-12-29T11:09:51;254.77;;;65.10;;
26359;SDS011;14063;41.426;13.854;2022-12-29T11:14:44;320.83;;;65.53;;
26359;SDS011;14063;41.426;13.854;2022-12-29T11:17:14;314.00;;;66.67;;
26359;SDS011;14063;41.426;13.854;2022-12-29T11:19:40;327.10;;;65.87;;
26359;SDS011;14063;41.426;13.854;2022-12-29T11:22:14;333.97;;;64.30;;
26359;SDS011;14063;41.426;13.854;2022-12-29T11:24:46;346.30;;;67.10;;
26359;SDS011;14063;41.426;13.854;2022-12-29T11:27:17;333.27;;;69.00;;
26359;SDS011;14063;41.426;13.854;2022-12-29T11:29:45;341.40;;;69.73;;
26359;SDS011;14063;41.426;13.854;2022-12-29T11:32:17;295.20;;;66.87;;
26359;SDS011;14063;41.426;13.854;2022-12-29T11:34:43;287.40;;;67.43;;
26359;SDS011;14063;41.426;13.854;2022-12-29T11:37:14;332.97;;;76.47;;
26359;SDS011;14063;41.426;13.854;2022-12-29T11:42:15;284.00;;;62.33;;
26359;SDS011;14063;41.426;13.854;2022-12-29T11:44:44;180.82;;;83.45;;
26359;SDS011;14063;41.426;13.854;2022-12-29T11:47:12;272.33;;;75.97;;
26359;SDS011;14063;41.426;13.854;2022-12-29T11:49:39;252.60;;;68.53;;
26359;SDS011;14063;41.426;13.854;2022-12-29T11:52:06;211.55;;;73.10;;
26359;SDS011;14063;41.426;13.854;2022-12-29T11:54:34;275.25;;;72.93;;
26359;SDS011;14063;41.426;13.854;2022-12-29T11:57:09;285.10;;;68.50;;
26359;SDS011;14063;41.426;13.854;2022-12-29T11:59:40;280.47;;;76.57;;
26359;SDS011;14063;41.426;13.854;2022-12-29T12:02:20;271.42;;;89.85;;
26359;SDS011;14063;41.426;13.854;2022-12-29T12:04:49;303.10;;;76.23;;
26359;SDS011;14063;41.426;13.854;2022-12-29T12:07:17;258.13;;;73.03;;
26359;SDS011;14063;41.426;13.854;2022-12-29T12:09:49;279.87;;;72.93;;
26359;SDS011;14063;41.426;13.854;2022-12-29T12:15:05;310.83;;;80.73;;
26359;SDS011;14063;41.426;13.854;2022-12-29T12:25:37;286.10;;;78.65;;
26359;SDS011;14063;41.426;13.854;2022-12-29T12:30:48;308.50;;;65.07;;
26359;SDS011;14063;41.426;13.854;2022-12-29T12:33:18;273.23;;;69.93;;
26359;SDS011;14063;41.426;13.854;2022-12-29T12:35:52;290.13;;;68.73;;
26359;SDS011;14063;41.426;13.854;2022-12-29T12:41:11;277.33;;;64.50;;
26359;SDS011;14063;41.426;13.854;2022-12-29T12:46:28;272.23;;;64.10;;
26359;SDS011;14063;41.426;13.854;2022-12-29T12:57:03;234.60;;;66.30;;
26359;SDS011;14063;41.426;13.854;2022-12-29T13:02:30;243.73;;;64.83;;
26359;SDS011;14063;41.426;13.854;2022-12-29T13:07:30;232.83;;;67.80;;
26359;SDS011;14063;41.426;13.854;2022-12-29T13:10:19;237.97;;;67.77;;
26359;SDS011;14063;41.426;13.854;2022-12-29T13:15:21;247.73;;;68.37;;
26359;SDS011;14063;41.426;13.854;2022-12-29T13:17:59;259.63;;;64.60;;
26359;SDS011;14063;41.426;13.854;2022-12-29T13:20:34;260.07;;;66.40;;
26359;SDS011;14063;41.426;13.854;2022-12-29T13:23:06;247.63;;;63.87;;
26359;SDS011;14063;41.426;13.854;2022-12-29T13:25:37;247.30;;;71.77;;
26359;SDS011;14063;41.426;13.854;2022-12-29T13:28:22;214.17;;;66.73;;
26359;SDS011;14063;41.426;13.854;2022-12-29T13:31:00;225.47;;;74.63;;
26359;SDS011;14063;41.426;13.854;2022-12-29T13:38:48;227.80;;;63.80;;
26359;SDS011;14063;41.426;13.854;2022-12-29T13:41:23;243.60;;;62.33;;
26359;SDS011;14063;41.426;13.854;2022-12-29T13:43:51;231.97;;;74.03;;
26359;SDS011;14063;41.426;13.854;2022-12-29T13:46:25;217.53;;;65.00;;
26359;SDS011;14063;41.426;13.854;2022-12-29T13:48:53;221.80;;;67.23;;
26359;SDS011;14063;41.426;13.854;2022-12-29T13:51:22;203.37;;;60.37;;
26359;SDS011;14063;41.426;13.854;2022-12-29T13:56:33;201.00;;;80.00;;
26359;SDS011;14063;41.426;13.854;2022-12-29T14:01:50;215.70;;;60.25;;
26359;SDS011;14063;41.426;13.854;2022-12-29T14:04:27;228.73;;;60.87;;
26359;SDS011;14063;41.426;13.854;2022-12-29T14:07:01;235.83;;;64.27;;
26359;SDS011;14063;41.426;13.854;2022-12-29T14:12:19;246.53;;;62.60;;
26359;SDS011;14063;41.426;13.854;2022-12-29T14:14:47;276.50;;;61.50;;
26359;SDS011;14063;41.426;13.854;2022-12-29T14:17:16;268.33;;;64.83;;
26359;SDS011;14063;41.426;13.854;2022-12-29T14:19:44;270.67;;;63.00;;
26359;SDS011;14063;41.426;13.854;2022-12-29T14:22:11;284.80;;;61.87;;
26359;SDS011;14063;41.426;13.854;2022-12-29T14:24:40;293.70;;;66.83;;
26359;SDS011;14063;41.426;13.854;2022-12-29T14:34:46;324.23;;;59.97;;
26359;SDS011;14063;41.426;13.854;2022-12-29T14:37:23;345.20;;;61.60;;
26359;SDS011;14063;41.426;13.854;2022-12-29T14:40:02;350.53;;;59.13;;
26359;SDS011;14063;41.426;13.854;2022-12-29T14:42:29;361.27;;;60.07;;
26359;SDS011;14063;41.426;13.854;2022-12-29T14:50:06;263.63;;;61.73;;
26359;SDS011;14063;41.426;13.854;2022-12-29T14:52:40;290.40;;;63.13;;
26359;SDS011;14063;41.426;13.854;2022-12-29T14:57:44;259.70;;;60.23;;
26359;SDS011;14063;41.426;13.854;2022-12-29T15:02:39;251.20;;;62.30;;
26359;SDS011;14063;41.426;13.854;2022-12-29T15:07:39;283.30;;;61.70;;
26359;SDS011;14063;41.426;13.854;2022-12-29T15:10:08;300.93;;;71.13;;
26359;SDS011;14063;41.426;13.854;2022-12-29T15:12:41;298.13;;;59.43;;
26359;SDS011;14063;41.426;13.854;2022-12-29T15:15:23;251.23;;;64.20;;
26359;SDS011;14063;41.426;13.854;2022-12-29T15:17:50;267.30;;;64.90;;
26359;SDS011;14063;41.426;13.854;2022-12-29T15:22:45;235.33;;;63.03;;
26359;SDS011;14063;41.426;13.854;2022-12-29T15:25:15;216.83;;;58.53;;
26359;SDS011;14063;41.426;13.854;2022-12-29T15:27:48;242.57;;;58.87;;
26359;SDS011;14063;41.426;13.854;2022-12-29T15:30:14;272.13;;;60.27;;
26359;SDS011;14063;41.426;13.854;2022-12-29T15:32:44;237.53;;;63.30;;
26359;SDS011;14063;41.426;13.854;2022-12-29T15:37:49;221.63;;;67.70;;
26359;SDS011;14063;41.426;13.854;2022-12-29T15:40:22;234.87;;;67.93;;
26359;SDS011;14063;41.426;13.854;2022-12-29T15:45:18;253.70;;;65.67;;
26359;SDS011;14063;41.426;13.854;2022-12-29T15:47:45;249.60;;;59.47;;
26359;SDS011;14063;41.426;13.854;2022-12-29T15:50:27;286.90;;;58.47;;
26359;SDS011;14063;41.426;13.854;2022-12-29T15:52:54;285.13;;;67.63;;
26359;SDS011;14063;41.426;13.854;2022-12-29T15:55:27;281.10;;;58.47;;
26359;SDS011;14063;41.426;13.854;2022-12-29T15:57:55;314.00;;;55.00;;
26359;SDS011;14063;41.426;13.854;2022-12-29T16:00:29;286.33;;;56.90;;
26359;SDS011;14063;41.426;13.854;2022-12-29T16:02:57;316.73;;;55.50;;
26359;SDS011;14063;41.426;13.854;2022-12-29T16:05:24;330.47;;;57.30;;
26359;SDS011;14063;41.426;13.854;2022-12-29T16:07:58;342.03;;;62.77;;
26359;SDS011;14063;41.426;13.854;2022-12-29T16:13:00;335.70;;;57.80;;
26359;SDS011;14063;41.426;13.854;2022-12-29T16:15:27;359.00;;;61.30;;
26359;SDS011;14063;41.426;13.854;2022-12-29T16:17:53;352.27;;;53.63;;
26359;SDS011;14063;41.426;13.854;2022-12-29T16:20:24;355.73;;;53.83;;
26359;SDS011;14063;41.426;13.854;2022-12-29T16:22:57;366.53;;;61.27;;
26359;SDS011;14063;41.426;13.854;2022-12-29T16:25:25;357.13;;;53.10;;
26359;SDS011;14063;41.426;13.854;2022-12-29T16:27:54;352.07;;;53.50;;
26359;SDS011;14063;41.426;13.854;2022-12-29T16:30:27;340.63;;;58.03;;
26359;SDS011;14063;41.426;13.854;2022-12-29T16:32:55;352.10;;;60.70;;
26359;SDS011;14063;41.426;13.854;2022-12-29T16:35:24;352.90;;;53.03;;
26359;SDS011;14063;41.426;13.854;2022-12-29T16:40:49;325.73;;;66.80;;
26359;SDS011;14063;41.426;13.854;2022-12-29T16:43:23;343.97;;;67.93;;
26359;SDS011;14063;41.426;13.854;2022-12-29T16:50:44;364.50;;;69.73;;
26359;SDS011;14063;41.426;13.854;2022-12-29T16:53:21;354.33;;;53.50;;
26359;SDS011;14063;41.426;13.854;2022-12-29T16:55:50;373.07;;;69.63;;
26359;SDS011;14063;41.426;13.854;2022-12-29T16:58:26;362.30;;;58.23;;
26359;SDS011;14063;41.426;13.854;2022-12-29T17:00:56;367.30;;;55.30;;
26359;SDS011;14063;41.426;13.854;2022-12-29T17:03:24;353.83;;;51.90;;
26359;SDS011;14063;41.426;13.854;2022-12-29T17:05:53;358.10;;;58.60;;
26359;SDS011;14063;41.426;13.854;2022-12-29T17:08:20;350.33;;;51.67;;
26359;SDS011;14063;41.426;13.854;2022-12-29T17:10:50;351.97;;;52.70;;
26359;SDS011;14063;41.426;13.854;2022-12-29T17:13:35;365.23;;;56.10;;
26359;SDS011;14063;41.426;13.854;2022-12-29T17:16:03;362.33;;;55.93;;
26359;SDS011;14063;41.426;13.854;2022-12-29T17:18:29;363.77;;;56.50;;
26359;SDS011;14063;41.426;13.854;2022-12-29T17:20:55;355.30;;;51.97;;
26359;SDS011;14063;41.426;13.854;2022-12-29T17:23:22;363.83;;;59.43;;
26359;SDS011;14063;41.426;13.854;2022-12-29T17:25:48;361.57;;;52.67;;
26359;SDS011;14063;41.426;13.854;2022-12-29T17:30:43;364.03;;;53.47;;
26359;SDS011;14063;41.426;13.854;2022-12-29T17:33:12;368.83;;;53.57;;
26359;SDS011;14063;41.426;13.854;2022-12-29T17:35:39;368.17;;;53.23;;
26359;SDS011;14063;41.426;13.854;2022-12-29T17:38:18;366.43;;;57.10;;
26359;SDS011;14063;41.426;13.854;2022-12-29T17:40:45;339.27;;;58.53;;
26359;SDS011;14063;41.426;13.854;2022-12-29T17:43:13;339.67;;;54.80;;
26359;SDS011;14063;41.426;13.854;2022-12-29T17:45:40;335.03;;;59.80;;
26359;SDS011;14063;41.426;13.854;2022-12-29T17:48:10;335.20;;;55.30;;
26359;SDS011;14063;41.426;13.854;2022-12-29T17:50:37;314.60;;;53.57;;
26359;SDS011;14063;41.426;13.854;2022-12-29T17:53:04;329.27;;;55.63;;
26359;SDS011;14063;41.426;13.854;2022-12-29T17:55:31;338.00;;;51.23;;
26359;SDS011;14063;41.426;13.854;2022-12-29T17:57:58;343.67;;;55.93;;
26359;SDS011;14063;41.426;13.854;2022-12-29T18:00:27;368.20;;;54.17;;
26359;SDS011;14063;41.426;13.854;2022-12-29T18:02:57;362.47;;;53.03;;
26359;SDS011;14063;41.426;13.854;2022-12-29T18:05:27;363.63;;;55.60;;
26359;SDS011;14063;41.426;13.854;2022-12-29T18:07:54;354.00;;;51.17;;
26359;SDS011;14063;41.426;13.854;2022-12-29T18:10:21;320.47;;;52.70;;
26359;SDS011;14063;41.426;13.854;2022-12-29T18:12:48;301.17;;;53.23;;
26359;SDS011;14063;41.426;13.854;2022-12-29T18:15:16;304.90;;;52.87;;
26359;SDS011;14063;41.426;13.854;2022-12-29T18:17:43;317.90;;;52.17;;
26359;SDS011;14063;41.426;13.854;2022-12-29T18:20:10;393.93;;;61.60;;
26359;SDS011;14063;41.426;13.854;2022-12-29T18:22:37;362.47;;;54.20;;
26359;SDS011;14063;41.426;13.854;2022-12-29T18:25:11;368.93;;;54.87;;
26359;SDS011;14063;41.426;13.854;2022-12-29T18:27:41;367.43;;;55.37;;
26359;SDS011;14063;41.426;13.854;2022-12-29T18:30:07;356.43;;;52.70;;
26359;SDS011;14063;41.426;13.854;2022-12-29T18:32:34;360.33;;;53.53;;
26359;SDS011;14063;41.426;13.854;2022-12-29T18:35:00;356.03;;;50.10;;
26359;SDS011;14063;41.426;13.854;2022-12-29T18:37:26;355.43;;;53.40;;
26359;SDS011;14063;41.426;13.854;2022-12-29T18:39:57;362.27;;;56.20;;
26359;SDS011;14063;41.426;13.854;2022-12-29T18:42:33;358.40;;;50.70;;
26359;SDS011;14063;41.426;13.854;2022-12-29T18:45:00;355.60;;;55.47;;
26359;SDS011;14063;41.426;13.854;2022-12-29T18:47:27;359.93;;;65.17;;
26359;SDS011;14063;41.426;13.854;2022-12-29T18:49:55;356.90;;;56.20;;
26359;SDS011;14063;41.426;13.854;2022-12-29T18:52:21;349.30;;;51.70;;
26359;SDS011;14063;41.426;13.854;2022-12-29T18:54:48;353.27;;;52.27;;
26359;SDS011;14063;41.426;13.854;2022-12-29T18:57:15;358.43;;;52.73;;
26359;SDS011;14063;41.426;13.854;2022-12-29T18:59:42;359.30;;;51.83;;
26359;SDS011;14063;41.426;13.854;2022-12-29T19:02:12;355.30;;;59.33;;
26359;SDS011;14063;41.426;13.854;2022-12-29T19:04:41;350.90;;;50.80;;
26359;SDS011;14063;41.426;13.854;2022-12-29T19:07:07;305.77;;;52.33;;
26359;SDS011;14063;41.426;13.854;2022-12-29T19:09:34;319.80;;;52.00;;
26359;SDS011;14063;41.426;13.854;2022-12-29T19:12:00;303.47;;;56.53;;
26359;SDS011;14063;41.426;13.854;2022-12-29T19:14:26;238.90;;;54.60;;
26359;SDS011;14063;41.426;13.854;2022-12-29T19:16:53;285.43;;;54.00;;
26359;SDS011;14063;41.426;13.854;2022-12-29T19:19:20;221.83;;;60.57;;
26359;SDS011;14063;41.426;13.854;2022-12-29T19:21:46;346.93;;;56.43;;
26359;SDS011;14063;41.426;13.854;2022-12-29T19:24:13;344.47;;;54.60;;
26359;SDS011;14063;41.426;13.854;2022-12-29T19:26:40;369.77;;;62.80;;
26359;SDS011;14063;41.426;13.854;2022-12-29T19:29:10;363.97;;;59.23;;
26359;SDS011;14063;41.426;13.854;2022-12-29T19:31:38;312.53;;;59.00;;
26359;SDS011;14063;41.426;13.854;2022-12-29T19:34:05;222.90;;;50.83;;
26359;SDS011;14063;41.426;13.854;2022-12-29T19:36:31;265.87;;;55.30;;
26359;SDS011;14063;41.426;13.854;2022-12-29T19:38:58;279.37;;;53.43;;
26359;SDS011;14063;41.426;13.854;2022-12-29T19:41:24;302.63;;;54.00;;
26359;SDS011;14063;41.426;13.854;2022-12-29T19:43:51;249.30;;;49.60;;
26359;SDS011;14063;41.426;13.854;2022-12-29T19:46:17;294.20;;;53.37;;
26359;SDS011;14063;41.426;13.854;2022-12-29T19:48:44;200.57;;;50.17;;
26359;SDS011;14063;41.426;13.854;2022-12-29T19:51:11;323.30;;;50.47;;
26359;SDS011;14063;41.426;13.854;2022-12-29T19:53:41;271.30;;;52.10;;
26359;SDS011;14063;41.426;13.854;2022-12-29T19:56:08;364.23;;;55.10;;
26359;SDS011;14063;41.426;13.854;2022-12-29T19:58:35;307.10;;;51.73;;
26359;SDS011;14063;41.426;13.854;2022-12-29T20:01:05;323.40;;;51.67;;
26359;SDS011;14063;41.426;13.854;2022-12-29T20:03:32;334.60;;;51.97;;
26359;SDS011;14063;41.426;13.854;2022-12-29T20:05:58;301.17;;;51.40;;
26359;SDS011;14063;41.426;13.854;2022-12-29T20:08:25;356.97;;;52.13;;
26359;SDS011;14063;41.426;13.854;2022-12-29T20:10:58;351.30;;;50.60;;
26359;SDS011;14063;41.426;13.854;2022-12-29T20:13:25;356.37;;;52.33;;
26359;SDS011;14063;41.426;13.854;2022-12-29T20:15:55;353.60;;;50.90;;
26359;SDS011;14063;41.426;13.854;2022-12-29T20:18:22;337.47;;;51.50;;
26359;SDS011;14063;41.426;13.854;2022-12-29T20:20:48;320.87;;;53.87;;
26359;SDS011;14063;41.426;13.854;2022-12-29T20:23:14;319.23;;;52.47;;
26359;SDS011;14063;41.426;13.854;2022-12-29T20:25:40;354.83;;;52.50;;
26359;SDS011;14063;41.426;13.854;2022-12-29T20:28:08;320.53;;;52.73;;
26359;SDS011;14063;41.426;13.854;2022-12-29T20:30:34;357.43;;;51.27;;
26359;SDS011;14063;41.426;13.854;2022-12-29T20:33:01;344.73;;;51.40;;
26359;SDS011;14063;41.426;13.854;2022-12-29T20:35:27;349.33;;;51.77;;
26359;SDS011;14063;41.426;13.854;2022-12-29T20:37:53;323.60;;;52.50;;
26359;SDS011;14063;41.426;13.854;2022-12-29T20:40:19;357.63;;;51.40;;
26359;SDS011;14063;41.426;13.854;2022-12-29T20:42:46;356.40;;;52.33;;
26359;SDS011;14063;41.426;13.854;2022-12-29T20:45:12;354.40;;;50.80;;
26359;SDS011;14063;41.426;13.854;2022-12-29T20:47:38;362.63;;;52.13;;
26359;SDS011;14063;41.426;13.854;2022-12-29T20:50:04;356.53;;;50.83;;
26359;SDS011;14063;41.426;13.854;2022-12-29T20:52:31;346.13;;;51.13;;
26359;SDS011;14063;41.426;13.854;2022-12-29T20:54:57;352.90;;;50.47;;
26359;SDS011;14063;41.426;13.854;2022-12-29T20:57:23;334.73;;;51.60;;
26359;SDS011;14063;41.426;13.854;2022-12-29T20:59:50;341.03;;;51.80;;
26359;SDS011;14063;41.426;13.854;2022-12-29T21:02:20;324.00;;;52.07;;
26359;SDS011;14063;41.426;13.854;2022-12-29T21:04:46;296.30;;;53.60;;
26359;SDS011;14063;41.426;13.854;2022-12-29T21:07:12;300.27;;;52.10;;
26359;SDS011;14063;41.426;13.854;2022-12-29T21:09:39;319.90;;;51.63;;
26359;SDS011;14063;41.426;13.854;2022-12-29T21:12:05;275.47;;;54.30;;
26359;SDS011;14063;41.426;13.854;2022-12-29T21:14:32;325.33;;;52.13;;
26359;SDS011;14063;41.426;13.854;2022-12-29T21:16:58;311.70;;;52.37;;
26359;SDS011;14063;41.426;13.854;2022-12-29T21:19:25;289.27;;;52.93;;
26359;SDS011;14063;41.426;13.854;2022-12-29T21:21:51;273.83;;;60.10;;
26359;SDS011;14063;41.426;13.854;2022-12-29T21:24:17;268.67;;;57.03;;
26359;SDS011;14063;41.426;13.854;2022-12-29T21:26:43;269.50;;;53.27;;
26359;SDS011;14063;41.426;13.854;2022-12-29T21:29:10;341.33;;;53.87;;
26359;SDS011;14063;41.426;13.854;2022-12-29T21:31:36;320.50;;;52.17;;
26359;SDS011;14063;41.426;13.854;2022-12-29T21:34:04;336.93;;;52.00;;
26359;SDS011;14063;41.426;13.854;2022-12-29T21:36:30;329.87;;;54.83;;
26359;SDS011;14063;41.426;13.854;2022-12-29T21:38:57;316.40;;;52.33;;
26359;SDS011;14063;41.426;13.854;2022-12-29T21:41:24;282.80;;;54.87;;
26359;SDS011;14063;41.426;13.854;2022-12-29T21:43:50;263.33;;;54.60;;
26359;SDS011;14063;41.426;13.854;2022-12-29T21:46:36;342.17;;;60.90;;
26359;SDS011;14063;41.426;13.854;2022-12-29T21:49:03;314.00;;;52.10;;
26359;SDS011;14063;41.426;13.854;2022-12-29T21:51:30;350.73;;;52.10;;
26359;SDS011;14063;41.426;13.854;2022-12-29T21:54:15;324.83;;;52.53;;
26359;SDS011;14063;41.426;13.854;2022-12-29T21:56:59;281.90;;;55.43;;
26359;SDS011;14063;41.426;13.854;2022-12-29T21:59:26;290.20;;;56.53;;
26359;SDS011;14063;41.426;13.854;2022-12-29T22:02:18;304.30;;;53.73;;
26359;SDS011;14063;41.426;13.854;2022-12-29T22:05:03;347.23;;;55.70;;
26359;SDS011;14063;41.426;13.854;2022-12-29T22:07:49;339.80;;;71.47;;
26359;SDS011;14063;41.426;13.854;2022-12-29T22:10:38;301.53;;;64.47;;
26359;SDS011;14063;41.426;13.854;2022-12-29T22:13:22;291.33;;;56.47;;
26359;SDS011;14063;41.426;13.854;2022-12-29T22:15:49;285.50;;;53.70;;
26359;SDS011;14063;41.426;13.854;2022-12-29T22:18:15;204.47;;;51.73;;
26359;SDS011;14063;41.426;13.854;2022-12-29T22:20:41;184.40;;;57.07;;
26359;SDS011;14063;41.426;13.854;2022-12-29T22:23:08;263.50;;;52.43;;
26359;SDS011;14063;41.426;13.854;2022-12-29T22:25:34;280.23;;;53.00;;
26359;SDS011;14063;41.426;13.854;2022-12-29T22:28:00;332.60;;;56.90;;
26359;SDS011;14063;41.426;13.854;2022-12-29T22:30:27;254.00;;;52.20;;
26359;SDS011;14063;41.426;13.854;2022-12-29T22:32:53;304.77;;;52.90;;
26359;SDS011;14063;41.426;13.854;2022-12-29T22:35:20;269.23;;;52.53;;
26359;SDS011;14063;41.426;13.854;2022-12-29T22:37:46;286.70;;;51.17;;
26359;SDS011;14063;41.426;13.854;2022-12-29T22:40:13;291.37;;;52.17;;
26359;SDS011;14063;41.426;13.854;2022-12-29T22:42:39;307.87;;;53.67;;
26359;SDS011;14063;41.426;13.854;2022-12-29T22:45:05;342.10;;;51.13;;
26359;SDS011;14063;41.426;13.854;2022-12-29T22:47:32;357.83;;;51.83;;
26359;SDS011;14063;41.426;13.854;2022-12-29T22:49:58;353.00;;;50.90;;
26359;SDS011;14063;41.426;13.854;2022-12-29T22:52:24;355.03;;;51.17;;
26359;SDS011;14063;41.426;13.854;2022-12-29T22:54:51;265.90;;;52.97;;
26359;SDS011;14063;41.426;13.854;2022-12-29T22:57:17;307.97;;;53.30;;
26359;SDS011;14063;41.426;13.854;2022-12-29T22:59:43;347.37;;;50.50;;
26359;SDS011;14063;41.426;13.854;2022-12-29T23:02:10;349.83;;;50.63;;
26359;SDS011;14063;41.426;13.854;2022-12-29T23:04:36;343.77;;;52.57;;
26359;SDS011;14063;41.426;13.854;2022-12-29T23:07:03;352.53;;;50.90;;
26359;SDS011;14063;41.426;13.854;2022-12-29T23:09:30;355.60;;;51.10;;
26359;SDS011;14063;41.426;13.854;2022-12-29T23:11:57;350.70;;;49.80;;
26359;SDS011;14063;41.426;13.854;2022-12-29T23:14:23;345.83;;;49.73;;
26359;SDS011;14063;41.426;13.854;2022-12-29T23:16:49;343.40;;;49.00;;
26359;SDS011;14063;41.426;13.854;2022-12-29T23:19:20;349.57;;;49.53;;
26359;SDS011;14063;41.426;13.854;2022-12-29T23:21:47;348.10;;;49.90;;
26359;SDS011;14063;41.426;13.854;2022-12-29T23:24:14;355.27;;;53.30;;
26359;SDS011;14063;41.426;13.854;2022-12-29T23:26:41;352.57;;;50.87;;
26359;SDS011;14063;41.426;13.854;2022-12-29T23:29:10;350.30;;;50.20;;
26359;SDS011;14063;41.426;13.854;2022-12-29T23:31:36;347.77;;;50.83;;
26359;SDS011;14063;41.426;13.854;2022-12-29T23:34:04;355.23;;;52.00;;
26359;SDS011;14063;41.426;13.854;2022-12-29T23:36:31;349.77;;;50.13;;
26359;SDS011;14063;41.426;13.854;2022-12-29T23:38:58;344.30;;;49.43;;
26359;SDS011;14063;41.426;13.854;2022-12-29T23:41:24;336.77;;;52.87;;
26359;SDS011;14063;41.426;13.854;2022-12-29T23:43:51;341.57;;;53.63;;
26359;SDS011;14063;41.426;13.854;2022-12-29T23:46:19;342.70;;;54.13;;
26359;SDS011;14063;41.426;13.854;2022-12-29T23:48:45;362.30;;;54.53;;
26359;SDS011;14063;41.426;13.854;2022-12-29T23:51:11;350.07;;;60.13;;
26359;SDS011;14063;41.426;13.854;2022-12-29T23:53:38;346.23;;;50.80;;
26359;SDS011;14063;41.426;13.854;2022-12-29T23:56:06;347.77;;;50.70;;
26359;SDS011;14063;41.426;13.854;2022-12-29T23:58:33;352.43;;;50.33;;
